sensor_id;sensor_type;location;lat;lon;timestamp;pressure;altitude;pressure_sealevel;temperature;humidity
49979;BME280;35869;50.990;6.962;2023-07-31T00:03:14;100911.78;;;17.01;100.00
49979;BME280;35869;50.990;6.962;2023-07-31T00:08:14;100904.41;;;17.06;100.00
49979;BME280;35869;50.990;6.962;2023-07-31T00:13:15;100914.72;;;16.96;100.00
49979;BME280;35869;50.990;6.962;2023-07-31T00:18:15;100919.34;;;16.93;100.00
49979;BME280;35869;50.990;6.962;2023-07-31T00:23:15;100915.25;;;17.01;100.00
49979;BME280;35869;50.990;6.962;2023-07-31T00:28:16;100912.94;;;16.97;100.00
49979;BME280;35869;50.990;6.962;2023-07-31T00:33:16;100909.06;;;17.02;100.00
49979;BME280;35869;50.990;6.962;2023-07-31T00:38:16;100910.53;;;17.07;100.00
49979;BME280;35869;50.990;6.962;2023-07-31T00:43:16;100908.09;;;17.03;100.00
49979;BME280;35869;50.990;6.962;2023-07-31T00:48:16;100910.97;;;17.00;100.00
49979;BME280;35869;50.990;6.962;2023-07-31T00:53:17;100899.09;;;17.08;100.00
49979;BME280;35869;50.990;6.962;2023-07-31T00:58:17;100900.13;;;17.05;100.00
49979;BME280;35869;50.990;6.962;2023-07-31T01:03:18;100894.56;;;16.97;100.00
49979;BME280;35869;50.990;6.962;2023-07-31T01:13:30;100885.72;;;16.98;100.00
49979;BME280;35869;50.990;6.962;2023-07-31T01:18:30;100880.38;;;16.99;100.00
49979;BME280;35869;50.990;6.962;2023-07-31T01:34:03;100880.06;;;16.91;100.00
49979;BME280;35869;50.990;6.962;2023-07-31T01:39:03;100884.38;;;16.92;100.00
49979;BME280;35869;50.990;6.962;2023-07-31T01:44:04;100877.97;;;16.96;100.00
49979;BME280;35869;50.990;6.962;2023-07-31T01:49:05;100882.06;;;17.00;100.00
49979;BME280;35869;50.990;6.962;2023-07-31T01:54:06;100883.81;;;17.00;100.00
49979;BME280;35869;50.990;6.962;2023-07-31T01:59:06;100876.81;;;17.00;100.00
49979;BME280;35869;50.990;6.962;2023-07-31T02:04:06;100874.38;;;16.97;100.00
49979;BME280;35869;50.990;6.962;2023-07-31T02:09:06;100874.19;;;17.00;100.00
49979;BME280;35869;50.990;6.962;2023-07-31T02:14:07;100861.78;;;17.02;100.00
49979;BME280;35869;50.990;6.962;2023-07-31T02:19:07;100863.69;;;17.00;100.00
49979;BME280;35869;50.990;6.962;2023-07-31T02:24:07;100852.25;;;17.01;100.00
49979;BME280;35869;50.990;6.962;2023-07-31T02:29:08;100838.34;;;16.99;100.00
49979;BME280;35869;50.990;6.962;2023-07-31T02:34:08;100846.88;;;17.03;100.00
49979;BME280;35869;50.990;6.962;2023-07-31T02:39:08;100850.97;;;17.07;100.00
49979;BME280;35869;50.990;6.962;2023-07-31T02:44:08;100843.19;;;17.05;100.00
49979;BME280;35869;50.990;6.962;2023-07-31T02:49:09;100839.84;;;17.03;100.00
49979;BME280;35869;50.990;6.962;2023-07-31T02:54:09;100839.09;;;17.01;100.00
49979;BME280;35869;50.990;6.962;2023-07-31T02:59:09;100830.28;;;17.02;100.00
49979;BME280;35869;50.990;6.962;2023-07-31T03:04:09;100833.19;;;17.11;100.00
49979;BME280;35869;50.990;6.962;2023-07-31T03:09:09;100820.91;;;17.11;100.00
49979;BME280;35869;50.990;6.962;2023-07-31T03:14:10;100821.84;;;17.10;100.00
49979;BME280;35869;50.990;6.962;2023-07-31T03:19:10;100811.16;;;17.13;100.00
49979;BME280;35869;50.990;6.962;2023-07-31T03:24:10;100806.75;;;17.14;100.00
49979;BME280;35869;50.990;6.962;2023-07-31T03:29:10;100800.44;;;17.03;100.00
49979;BME280;35869;50.990;6.962;2023-07-31T03:34:10;100805.78;;;17.15;100.00
49979;BME280;35869;50.990;6.962;2023-07-31T03:39:11;100808.94;;;17.20;100.00
49979;BME280;35869;50.990;6.962;2023-07-31T03:44:11;100798.09;;;17.12;100.00
49979;BME280;35869;50.990;6.962;2023-07-31T03:49:11;100800.66;;;17.13;100.00
49979;BME280;35869;50.990;6.962;2023-07-31T03:54:11;100803.59;;;17.09;100.00
49979;BME280;35869;50.990;6.962;2023-07-31T03:59:12;100790.97;;;17.14;100.00
49979;BME280;35869;50.990;6.962;2023-07-31T04:04:12;100788.63;;;17.22;100.00
49979;BME280;35869;50.990;6.962;2023-07-31T04:09:12;100786.84;;;17.22;100.00
49979;BME280;35869;50.990;6.962;2023-07-31T04:14:12;100786.97;;;17.21;100.00
49979;BME280;35869;50.990;6.962;2023-07-31T04:19:12;100780.88;;;17.20;100.00
49979;BME280;35869;50.990;6.962;2023-07-31T04:24:13;100778.00;;;17.23;100.00
49979;BME280;35869;50.990;6.962;2023-07-31T04:29:13;100774.56;;;17.23;100.00
49979;BME280;35869;50.990;6.962;2023-07-31T04:34:13;100771.91;;;17.23;100.00
49979;BME280;35869;50.990;6.962;2023-07-31T04:39:13;100774.47;;;17.24;100.00
49979;BME280;35869;50.990;6.962;2023-07-31T04:44:14;100762.16;;;17.25;100.00
49979;BME280;35869;50.990;6.962;2023-07-31T04:49:14;100759.41;;;17.26;100.00
49979;BME280;35869;50.990;6.962;2023-07-31T04:54:14;100756.78;;;17.26;100.00
49979;BME280;35869;50.990;6.962;2023-07-31T04:59:14;100752.25;;;17.28;100.00
49979;BME280;35869;50.990;6.962;2023-07-31T05:04:15;100755.63;;;17.30;100.00
49979;BME280;35869;50.990;6.962;2023-07-31T05:09:15;100739.75;;;17.32;100.00
49979;BME280;35869;50.990;6.962;2023-07-31T05:14:16;100739.75;;;17.32;100.00
49979;BME280;35869;50.990;6.962;2023-07-31T05:19:16;100727.34;;;17.34;100.00
49979;BME280;35869;50.990;6.962;2023-07-31T05:24:16;100730.47;;;17.39;100.00
49979;BME280;35869;50.990;6.962;2023-07-31T05:29:16;100725.00;;;17.42;100.00
49979;BME280;35869;50.990;6.962;2023-07-31T05:34:16;100724.06;;;17.43;100.00
49979;BME280;35869;50.990;6.962;2023-07-31T05:39:21;100706.88;;;17.50;100.00
49979;BME280;35869;50.990;6.962;2023-07-31T05:44:24;100694.38;;;17.54;100.00
49979;BME280;35869;50.990;6.962;2023-07-31T05:49:28;100685.66;;;17.53;100.00
49979;BME280;35869;50.990;6.962;2023-07-31T05:54:46;100677.31;;;17.59;100.00
49979;BME280;35869;50.990;6.962;2023-07-31T05:59:47;100674.78;;;17.58;100.00
49979;BME280;35869;50.990;6.962;2023-07-31T06:04:47;100682.56;;;17.59;100.00
49979;BME280;35869;50.990;6.962;2023-07-31T06:09:47;100689.09;;;17.54;100.00
49979;BME280;35869;50.990;6.962;2023-07-31T06:14:54;100694.63;;;17.62;100.00
49979;BME280;35869;50.990;6.962;2023-07-31T06:19:54;100698.22;;;17.61;100.00
49979;BME280;35869;50.990;6.962;2023-07-31T06:24:54;100682.56;;;17.59;100.00
49979;BME280;35869;50.990;6.962;2023-07-31T06:29:55;100674.69;;;17.59;100.00
49979;BME280;35869;50.990;6.962;2023-07-31T06:34:55;100681.72;;;17.59;100.00
49979;BME280;35869;50.990;6.962;2023-07-31T06:39:55;100685.41;;;17.56;100.00
49979;BME280;35869;50.990;6.962;2023-07-31T06:44:56;100681.72;;;17.59;100.00
49979;BME280;35869;50.990;6.962;2023-07-31T06:49:56;100681.72;;;17.59;100.00
49979;BME280;35869;50.990;6.962;2023-07-31T06:55:19;100669.44;;;17.59;100.00
49979;BME280;35869;50.990;6.962;2023-07-31T07:00:21;100677.06;;;17.63;100.00
49979;BME280;35869;50.990;6.962;2023-07-31T07:05:21;100668.72;;;17.69;100.00
49979;BME280;35869;50.990;6.962;2023-07-31T07:10:27;100672.84;;;17.73;100.00
49979;BME280;35869;50.990;6.962;2023-07-31T07:15:27;100669.03;;;17.77;100.00
49979;BME280;35869;50.990;6.962;2023-07-31T07:20:28;100665.31;;;17.79;100.00
49979;BME280;35869;50.990;6.962;2023-07-31T07:25:28;100665.81;;;17.84;100.00
49979;BME280;35869;50.990;6.962;2023-07-31T07:30:31;100669.03;;;17.88;100.00
49979;BME280;35869;50.990;6.962;2023-07-31T07:35:35;100663.44;;;17.93;100.00
49979;BME280;35869;50.990;6.962;2023-07-31T07:40:42;100666.69;;;17.96;100.00
49979;BME280;35869;50.990;6.962;2023-07-31T07:45:42;100668.47;;;17.96;100.00
49979;BME280;35869;50.990;6.962;2023-07-31T07:50:42;100662.97;;;17.99;100.00
49979;BME280;35869;50.990;6.962;2023-07-31T07:55:42;100672.44;;;18.01;100.00
49979;BME280;35869;50.990;6.962;2023-07-31T08:00:50;100674.44;;;17.98;100.00
49979;BME280;35869;50.990;6.962;2023-07-31T08:05:51;100673.41;;;18.00;100.00
49979;BME280;35869;50.990;6.962;2023-07-31T08:10:51;100679.69;;;17.87;100.00
49979;BME280;35869;50.990;6.962;2023-07-31T08:15:51;100666.53;;;17.87;100.00
49979;BME280;35869;50.990;6.962;2023-07-31T08:20:51;100649.09;;;17.97;100.00
49979;BME280;35869;50.990;6.962;2023-07-31T08:25:52;100650.41;;;17.91;100.00
49979;BME280;35869;50.990;6.962;2023-07-31T08:30:52;100629.16;;;17.94;100.00
49979;BME280;35869;50.990;6.962;2023-07-31T08:35:52;100627.94;;;17.98;100.00
49979;BME280;35869;50.990;6.962;2023-07-31T08:40:53;100620.31;;;17.95;100.00
49979;BME280;35869;50.990;6.962;2023-07-31T08:45:53;100619.22;;;17.98;100.00
49979;BME280;35869;50.990;6.962;2023-07-31T08:50:54;100618.16;;;18.00;100.00
49979;BME280;35869;50.990;6.962;2023-07-31T08:55:54;100625.09;;;18.01;100.00
49979;BME280;35869;50.990;6.962;2023-07-31T09:00:57;100615.41;;;18.02;100.00
49979;BME280;35869;50.990;6.962;2023-07-31T09:05:58;100625.44;;;17.97;100.00
49979;BME280;35869;50.990;6.962;2023-07-31T09:11:03;100632.03;;;18.02;100.00
49979;BME280;35869;50.990;6.962;2023-07-31T09:16:03;100642.75;;;17.99;100.00
49979;BME280;35869;50.990;6.962;2023-07-31T09:21:12;100639.28;;;17.99;100.00
49979;BME280;35869;50.990;6.962;2023-07-31T09:26:34;100637.03;;;18.05;100.00
49979;BME280;35869;50.990;6.962;2023-07-31T09:31:53;100626.50;;;18.05;100.00
49979;BME280;35869;50.990;6.962;2023-07-31T09:37:05;100610.25;;;18.11;100.00
49979;BME280;35869;50.990;6.962;2023-07-31T09:42:31;100599.50;;;18.15;100.00
49979;BME280;35869;50.990;6.962;2023-07-31T09:47:47;100598.41;;;18.17;100.00
49979;BME280;35869;50.990;6.962;2023-07-31T09:52:49;100594.03;;;18.18;100.00
49979;BME280;35869;50.990;6.962;2023-07-31T09:58:02;100593.53;;;18.24;100.00
49979;BME280;35869;50.990;6.962;2023-07-31T10:03:09;100581.81;;;18.28;100.00
49979;BME280;35869;50.990;6.962;2023-07-31T10:08:11;100576.88;;;18.34;100.00
49979;BME280;35869;50.990;6.962;2023-07-31T10:13:19;100573.66;;;18.42;100.00
49979;BME280;35869;50.990;6.962;2023-07-31T10:18:22;100568.97;;;18.46;100.00
49979;BME280;35869;50.990;6.962;2023-07-31T10:23:23;100566.69;;;18.52;100.00
49979;BME280;35869;50.990;6.962;2023-07-31T10:28:24;100581.28;;;18.56;100.00
49979;BME280;35869;50.990;6.962;2023-07-31T10:33:30;100572.66;;;18.65;100.00
49979;BME280;35869;50.990;6.962;2023-07-31T10:38:56;100577.72;;;18.46;100.00
49979;BME280;35869;50.990;6.962;2023-07-31T10:44:00;100565.38;;;18.58;100.00
49979;BME280;35869;50.990;6.962;2023-07-31T10:49:02;100577.69;;;18.57;100.00
49979;BME280;35869;50.990;6.962;2023-07-31T10:54:21;100567.41;;;18.65;100.00
49979;BME280;35869;50.990;6.962;2023-07-31T10:59:26;100567.63;;;18.74;100.00
49979;BME280;35869;50.990;6.962;2023-07-31T11:04:27;100577.19;;;18.86;100.00
49979;BME280;35869;50.990;6.962;2023-07-31T11:09:34;100578.91;;;18.53;100.00
49979;BME280;35869;50.990;6.962;2023-07-31T11:14:34;100577.00;;;18.55;100.00
49979;BME280;35869;50.990;6.962;2023-07-31T11:20:11;100558.31;;;18.70;100.00
49979;BME280;35869;50.990;6.962;2023-07-31T11:25:18;100553.91;;;19.02;100.00
49979;BME280;35869;50.990;6.962;2023-07-31T11:30:19;100552.94;;;19.03;100.00
49979;BME280;35869;50.990;6.962;2023-07-31T11:35:20;100556.25;;;19.05;100.00
49979;BME280;35869;50.990;6.962;2023-07-31T11:40:20;100548.41;;;19.26;100.00
49979;BME280;35869;50.990;6.962;2023-07-31T11:45:20;100534.97;;;19.29;100.00
49979;BME280;35869;50.990;6.962;2023-07-31T11:50:20;100539.91;;;19.23;100.00
49979;BME280;35869;50.990;6.962;2023-07-31T11:55:21;100531.75;;;19.47;100.00
49979;BME280;35869;50.990;6.962;2023-07-31T12:00:22;100541.47;;;19.67;100.00
49979;BME280;35869;50.990;6.962;2023-07-31T12:05:22;100527.44;;;19.66;100.00
49979;BME280;35869;50.990;6.962;2023-07-31T12:10:30;100523.19;;;19.75;100.00
49979;BME280;35869;50.990;6.962;2023-07-31T12:15:38;100524.44;;;19.81;100.00
49979;BME280;35869;50.990;6.962;2023-07-31T12:20:44;100524.22;;;19.84;100.00
49979;BME280;35869;50.990;6.962;2023-07-31T12:25:45;100524.69;;;19.68;100.00
49979;BME280;35869;50.990;6.962;2023-07-31T12:30:45;100524.22;;;19.84;100.00
49979;BME280;35869;50.990;6.962;2023-07-31T12:35:46;100531.50;;;20.01;100.00
49979;BME280;35869;50.990;6.962;2023-07-31T12:40:47;100513.13;;;19.90;100.00
49979;BME280;35869;50.990;6.962;2023-07-31T12:45:47;100512.81;;;19.83;100.00
49979;BME280;35869;50.990;6.962;2023-07-31T12:50:47;100517.78;;;19.77;100.00
49979;BME280;35869;50.990;6.962;2023-07-31T12:55:48;100520.19;;;20.30;97.83
49979;BME280;35869;50.990;6.962;2023-07-31T13:00:48;100509.72;;;20.09;100.00
49979;BME280;35869;50.990;6.962;2023-07-31T13:05:48;100486.31;;;19.85;100.00
49979;BME280;35869;50.990;6.962;2023-07-31T13:10:49;100489.50;;;20.29;100.00
49979;BME280;35869;50.990;6.962;2023-07-31T13:15:49;100471.31;;;19.85;100.00
49979;BME280;35869;50.990;6.962;2023-07-31T13:20:49;100459.31;;;20.12;100.00
49979;BME280;35869;50.990;6.962;2023-07-31T13:25:49;100453.22;;;20.21;100.00
49979;BME280;35869;50.990;6.962;2023-07-31T13:30:50;100452.66;;;20.17;100.00
49979;BME280;35869;50.990;6.962;2023-07-31T13:35:50;100436.28;;;20.33;100.00
49979;BME280;35869;50.990;6.962;2023-07-31T13:40:50;100428.22;;;20.25;100.00
49979;BME280;35869;50.990;6.962;2023-07-31T13:45:50;100426.88;;;20.50;100.00
49979;BME280;35869;50.990;6.962;2023-07-31T13:50:50;100436.63;;;20.59;100.00
49979;BME280;35869;50.990;6.962;2023-07-31T13:55:51;100425.75;;;20.72;99.81
49979;BME280;35869;50.990;6.962;2023-07-31T14:00:51;100410.34;;;20.77;98.14
49979;BME280;35869;50.990;6.962;2023-07-31T14:05:51;100418.78;;;20.81;99.35
49979;BME280;35869;50.990;6.962;2023-07-31T14:10:52;100410.28;;;20.87;99.67
49979;BME280;35869;50.990;6.962;2023-07-31T14:15:52;100424.56;;;21.13;93.97
49979;BME280;35869;50.990;6.962;2023-07-31T14:20:55;100426.81;;;21.08;97.21
49979;BME280;35869;50.990;6.962;2023-07-31T14:25:55;100406.06;;;21.13;94.13
49979;BME280;35869;50.990;6.962;2023-07-31T14:30:56;100409.03;;;21.00;95.46
49979;BME280;35869;50.990;6.962;2023-07-31T14:35:56;100418.72;;;21.10;95.54
49979;BME280;35869;50.990;6.962;2023-07-31T14:40:56;100412.63;;;21.09;93.53
49979;BME280;35869;50.990;6.962;2023-07-31T14:45:57;100402.34;;;20.96;96.47
49979;BME280;35869;50.990;6.962;2023-07-31T14:50:57;100399.88;;;20.95;93.89
49979;BME280;35869;50.990;6.962;2023-07-31T14:55:57;100384.53;;;20.98;94.82
49979;BME280;35869;50.990;6.962;2023-07-31T15:00:58;100382.31;;;21.03;93.02
49979;BME280;35869;50.990;6.962;2023-07-31T15:05:58;100384.75;;;20.87;95.21
49979;BME280;35869;50.990;6.962;2023-07-31T15:10:58;100393.19;;;20.91;94.14
49979;BME280;35869;50.990;6.962;2023-07-31T15:15:59;100380.97;;;20.90;94.16
49979;BME280;35869;50.990;6.962;2023-07-31T15:20:59;100382.94;;;20.68;92.62
49979;BME280;35869;50.990;6.962;2023-07-31T15:25:59;100392.94;;;20.74;92.30
49979;BME280;35869;50.990;6.962;2023-07-31T15:31:00;100395.63;;;20.65;95.01
49979;BME280;35869;50.990;6.962;2023-07-31T15:36:00;100378.53;;;20.59;93.54
49979;BME280;35869;50.990;6.962;2023-07-31T15:41:00;100356.97;;;20.54;92.46
49979;BME280;35869;50.990;6.962;2023-07-31T15:46:00;100351.56;;;20.65;91.54
49979;BME280;35869;50.990;6.962;2023-07-31T15:51:00;100357.66;;;20.66;92.36
49979;BME280;35869;50.990;6.962;2023-07-31T15:56:01;100359.63;;;20.54;94.04
49979;BME280;35869;50.990;6.962;2023-07-31T16:01:01;100351.81;;;20.43;95.42
49979;BME280;35869;50.990;6.962;2023-07-31T16:06:13;100343.63;;;20.46;96.39
49979;BME280;35869;50.990;6.962;2023-07-31T16:11:16;100339.88;;;20.39;98.96
49979;BME280;35869;50.990;6.962;2023-07-31T16:16:19;100326.53;;;20.21;100.00
49979;BME280;35869;50.990;6.962;2023-07-31T16:21:20;100322.50;;;20.27;99.99
49979;BME280;35869;50.990;6.962;2023-07-31T16:26:20;100320.72;;;20.17;100.00
49979;BME280;35869;50.990;6.962;2023-07-31T16:31:20;100318.50;;;20.03;100.00
49979;BME280;35869;50.990;6.962;2023-07-31T16:36:20;100307.41;;;20.00;100.00
49979;BME280;35869;50.990;6.962;2023-07-31T16:41:21;100319.16;;;19.86;100.00
49979;BME280;35869;50.990;6.962;2023-07-31T16:46:25;100310.41;;;19.76;100.00
49979;BME280;35869;50.990;6.962;2023-07-31T16:51:33;100303.19;;;19.68;100.00
49979;BME280;35869;50.990;6.962;2023-07-31T16:56:36;100283.44;;;19.53;100.00
49979;BME280;35869;50.990;6.962;2023-07-31T17:01:36;100272.91;;;19.53;100.00
49979;BME280;35869;50.990;6.962;2023-07-31T17:06:36;100265.66;;;19.45;100.00
49979;BME280;35869;50.990;6.962;2023-07-31T17:11:37;100252.34;;;19.37;100.00
49979;BME280;35869;50.990;6.962;2023-07-31T17:16:39;100240.38;;;19.33;100.00
49979;BME280;35869;50.990;6.962;2023-07-31T17:21:40;100232.88;;;19.28;100.00
49979;BME280;35869;50.990;6.962;2023-07-31T17:26:40;100233.31;;;19.24;100.00
49979;BME280;35869;50.990;6.962;2023-07-31T17:31:40;100231.22;;;19.17;100.00
49979;BME280;35869;50.990;6.962;2023-07-31T17:36:40;100220.25;;;19.12;100.00
49979;BME280;35869;50.990;6.962;2023-07-31T17:41:40;100209.81;;;19.01;100.00
49979;BME280;35869;50.990;6.962;2023-07-31T17:46:47;100215.34;;;18.98;100.00
49979;BME280;35869;50.990;6.962;2023-07-31T17:51:47;100193.72;;;18.95;100.00
49979;BME280;35869;50.990;6.962;2023-07-31T17:56:47;100192.47;;;18.89;100.00
49979;BME280;35869;50.990;6.962;2023-07-31T18:01:47;100185.09;;;18.83;100.00
49979;BME280;35869;50.990;6.962;2023-07-31T18:06:48;100192.56;;;18.78;100.00
49979;BME280;35869;50.990;6.962;2023-07-31T18:11:48;100183.94;;;18.76;100.00
49979;BME280;35869;50.990;6.962;2023-07-31T18:16:49;100181.75;;;18.71;100.00
49979;BME280;35869;50.990;6.962;2023-07-31T18:21:49;100180.44;;;18.65;100.00
49979;BME280;35869;50.990;6.962;2023-07-31T18:26:49;100172.34;;;18.57;100.00
49979;BME280;35869;50.990;6.962;2023-07-31T18:31:50;100169.03;;;18.55;100.00
49979;BME280;35869;50.990;6.962;2023-07-31T18:36:50;100148.94;;;18.54;100.00
49979;BME280;35869;50.990;6.962;2023-07-31T18:41:50;100157.63;;;18.45;100.00
49979;BME280;35869;50.990;6.962;2023-07-31T18:46:50;100149.28;;;18.40;100.00
49979;BME280;35869;50.990;6.962;2023-07-31T18:51:50;100152.63;;;18.42;100.00
49979;BME280;35869;50.990;6.962;2023-07-31T18:56:52;100147.75;;;18.37;100.00
49979;BME280;35869;50.990;6.962;2023-07-31T19:01:52;100136.66;;;18.34;100.00
49979;BME280;35869;50.990;6.962;2023-07-31T19:06:52;100128.22;;;18.30;100.00
49979;BME280;35869;50.990;6.962;2023-07-31T19:11:52;100122.38;;;18.27;100.00
49979;BME280;35869;50.990;6.962;2023-07-31T19:16:53;100109.59;;;18.22;100.00
49979;BME280;35869;50.990;6.962;2023-07-31T19:21:53;100096.88;;;18.18;100.00
49979;BME280;35869;50.990;6.962;2023-07-31T19:26:53;100091.63;;;18.18;100.00
49979;BME280;35869;50.990;6.962;2023-07-31T19:31:53;100078.97;;;18.11;100.00
49979;BME280;35869;50.990;6.962;2023-07-31T19:36:54;100051.97;;;18.09;100.00
49979;BME280;35869;50.990;6.962;2023-07-31T19:41:54;100015.44;;;18.06;100.00
49979;BME280;35869;50.990;6.962;2023-07-31T19:46:54;99998.13;;;18.04;100.00
49979;BME280;35869;50.990;6.962;2023-07-31T19:52:14;100045.00;;;17.99;100.00
49979;BME280;35869;50.990;6.962;2023-07-31T19:57:35;100070.59;;;17.97;100.00
49979;BME280;35869;50.990;6.962;2023-07-31T20:02:48;100062.84;;;17.95;100.00
49979;BME280;35869;50.990;6.962;2023-07-31T20:07:48;100067.41;;;17.93;100.00
49979;BME280;35869;50.990;6.962;2023-07-31T20:12:48;100043.28;;;17.88;100.00
49979;BME280;35869;50.990;6.962;2023-07-31T20:17:49;100032.78;;;17.88;100.00
49979;BME280;35869;50.990;6.962;2023-07-31T20:22:49;100040.81;;;17.87;100.00
49979;BME280;35869;50.990;6.962;2023-07-31T20:27:56;100058.50;;;17.84;100.00
49979;BME280;35869;50.990;6.962;2023-07-31T20:32:56;100050.88;;;17.81;100.00
49979;BME280;35869;50.990;6.962;2023-07-31T20:37:56;100030.56;;;17.83;100.00
49979;BME280;35869;50.990;6.962;2023-07-31T20:42:58;100018.78;;;17.78;100.00
49979;BME280;35869;50.990;6.962;2023-07-31T20:47:58;100020.44;;;17.79;100.00
49979;BME280;35869;50.990;6.962;2023-07-31T20:52:58;100019.59;;;17.78;100.00
49979;BME280;35869;50.990;6.962;2023-07-31T20:58:00;99994.41;;;17.76;100.00
49979;BME280;35869;50.990;6.962;2023-07-31T21:03:03;99983.88;;;17.76;100.00
49979;BME280;35869;50.990;6.962;2023-07-31T21:08:04;99975.31;;;17.74;100.00
49979;BME280;35869;50.990;6.962;2023-07-31T21:13:04;99975.06;;;17.77;100.00
49979;BME280;35869;50.990;6.962;2023-07-31T21:18:04;99964.78;;;17.74;100.00
49979;BME280;35869;50.990;6.962;2023-07-31T21:23:04;99957.59;;;17.76;100.00
49979;BME280;35869;50.990;6.962;2023-07-31T21:28:04;99947.47;;;17.71;100.00
49979;BME280;35869;50.990;6.962;2023-07-31T21:33:05;99922.75;;;17.74;100.00
49979;BME280;35869;50.990;6.962;2023-07-31T21:38:06;99895.03;;;17.70;100.00
49979;BME280;35869;50.990;6.962;2023-07-31T21:43:08;99890.59;;;17.70;100.00
49979;BME280;35869;50.990;6.962;2023-07-31T21:48:08;99877.38;;;17.72;100.00
49979;BME280;35869;50.990;6.962;2023-07-31T21:53:08;99877.38;;;17.72;100.00
49979;BME280;35869;50.990;6.962;2023-07-31T21:58:09;99869.56;;;17.70;100.00
49979;BME280;35869;50.990;6.962;2023-07-31T22:03:10;99860.75;;;17.71;100.00
49979;BME280;35869;50.990;6.962;2023-07-31T22:08:11;99833.75;;;17.69;100.00
49979;BME280;35869;50.990;6.962;2023-07-31T22:13:11;99848.31;;;17.73;100.00
49979;BME280;35869;50.990;6.962;2023-07-31T22:18:11;99827.94;;;17.66;100.00
49979;BME280;35869;50.990;6.962;2023-07-31T22:23:11;99805.66;;;17.70;100.00
49979;BME280;35869;50.990;6.962;2023-07-31T22:28:14;99805.44;;;17.73;100.00
49979;BME280;35869;50.990;6.962;2023-07-31T22:33:18;99813.69;;;17.68;100.00
49979;BME280;35869;50.990;6.962;2023-07-31T22:38:19;99800.41;;;17.70;100.00
49979;BME280;35869;50.990;6.962;2023-07-31T22:43:21;99788.53;;;17.66;100.00
49979;BME280;35869;50.990;6.962;2023-07-31T22:48:22;99757.25;;;17.63;100.00
49979;BME280;35869;50.990;6.962;2023-07-31T22:53:36;99737.06;;;17.63;100.00
49979;BME280;35869;50.990;6.962;2023-07-31T22:58:36;99720.75;;;17.59;100.00
49979;BME280;35869;50.990;6.962;2023-07-31T23:03:37;99719.50;;;17.64;100.00
49979;BME280;35869;50.990;6.962;2023-07-31T23:08:37;99716.88;;;17.64;100.00
49979;BME280;35869;50.990;6.962;2023-07-31T23:13:39;99701.09;;;17.64;100.00
49979;BME280;35869;50.990;6.962;2023-07-31T23:18:45;99690.31;;;17.57;100.00
49979;BME280;35869;50.990;6.962;2023-07-31T23:23:56;99682.28;;;17.58;100.00
49979;BME280;35869;50.990;6.962;2023-07-31T23:28:57;99682.44;;;17.57;100.00
49979;BME280;35869;50.990;6.962;2023-07-31T23:33:57;99677.47;;;17.54;100.00
49979;BME280;35869;50.990;6.962;2023-07-31T23:38:58;99677.03;;;17.49;100.00
49979;BME280;35869;50.990;6.962;2023-07-31T23:43:58;99667.22;;;17.51;100.00
49979;BME280;35869;50.990;6.962;2023-07-31T23:48:59;99672.06;;;17.55;100.00
49979;BME280;35869;50.990;6.962;2023-07-31T23:54:00;99656.44;;;17.54;100.00
49979;BME280;35869;50.990;6.962;2023-07-31T23:59:00;99648.97;;;17.49;100.00
